Ürümqi Diwopu International Airport
ZWWW : now visible

Airfield :











YOU CAN JOIN US ON...

 
LOGIN :

Register | Disclaimer

   EN    FR    IT 

 









Legend :    VFR   Marginal VFR   IFR   Intensive IFR   Very Intensive IFR
Visi :
Ceiling :
>= 8 km
>= 3000ft
5 to 8 km
1000 to 3000 ft
1500m to 5 km
500 to 1000 ft
800 to 1500m
200 to 500 ft
< 800m
< 200 ft
Symbols :   Thunderstorms  Fog  Heavy snow  Heavy precipitations  Wind > 20 kt






- Airport Elevation : 2125 ft
- IATA code : URC


ZWWW - Ürümqi Diwopu International

CURRENT METAR :
  • 120100Z VRB01MPS 0050 R25/0200N FZFG VV001 M11/M12 Q1022 NOSIG

EXPIRED METARs :
  • 120030Z VRB01MPS 0050 R25/0225N -SG FZFG VV001 M11/M12 Q1022 NOSIG
  • 120000Z VRB01MPS 0050 R25/0225N -SG FZFG VV001 M11/M12 Q1022 NOSIG
  • 112330Z VRB01MPS 0050 R25/0225N FZFG VV001 M11/M12 Q1022 NOSIG
  • 112300Z VRB01MPS 0050 R25/0225N FZFG VV001 M11/M12 Q1022 NOSIG
  • 112230Z VRB01MPS 0050 R25/0200N FZFG VV001 M11/M12 Q1022 NOSIG

TAF TAF ZWWW
Valid from the 12 at 00:00 until the 13 at 00:00 UTC


112111Z 1200/1224 VRB01MPS 0200 -SG FZFG VV001 TXM08/09Z TNM12/23Z
BECMG 1204/1205 0500 FZFG VV002
BECMG 1207/1208 0700 FZFG BKN005
BECMG 1213/1214 0400 -SG FZFG VV002



MET'MAP, your aeronautical weather chart ! - Copyright ORBIFLY December 2007 - Disclaimer

ORBIFLY MET'MAP TEAM :

Programming & Development : Alexandra Zaïnal
Concept & original design : Baudouin d'Aumeries
Assistance for programming : Marc-Olivier Méhu
Technical & hardware support : Manuel Goepfert

Contact : metmap@orbifly.com




SOURCES & CREDITS :

   NOAA       Earth
Advisory